sensor_id;sensor_type;location;lat;lon;timestamp;P1;durP1;ratioP1;P2;durP2;ratioP2
35494;SDS011;21608;49.300;6.846;2022-08-04T00:04:44;3.63;;;2.20;;
35494;SDS011;21608;49.300;6.846;2022-08-04T00:08:10;2.17;;;1.90;;
35494;SDS011;21608;49.300;6.846;2022-08-04T00:11:19;2.10;;;1.90;;
35494;SDS011;21608;49.300;6.846;2022-08-04T00:14:22;4.18;;;2.25;;
35494;SDS011;21608;49.300;6.846;2022-08-04T00:17:27;1.92;;;1.65;;
35494;SDS011;21608;49.300;6.846;2022-08-04T00:20:38;2.58;;;1.83;;
35494;SDS011;21608;49.300;6.846;2022-08-04T00:23:43;1.70;;;1.60;;
35494;SDS011;21608;49.300;6.846;2022-08-04T00:27:06;2.20;;;2.00;;
35494;SDS011;21608;49.300;6.846;2022-08-04T00:30:09;1.90;;;1.80;;
35494;SDS011;21608;49.300;6.846;2022-08-04T00:33:11;3.55;;;2.17;;
35494;SDS011;21608;49.300;6.846;2022-08-04T00:36:18;2.30;;;2.10;;
35494;SDS011;21608;49.300;6.846;2022-08-04T00:39:21;2.38;;;2.20;;
35494;SDS011;21608;49.300;6.846;2022-08-04T00:42:34;2.00;;;1.90;;
35494;SDS011;21608;49.300;6.846;2022-08-04T00:53:00;2.00;;;1.83;;
35494;SDS011;21608;49.300;6.846;2022-08-04T00:59:49;5.88;;;2.40;;
35494;SDS011;21608;49.300;6.846;2022-08-04T01:03:00;6.90;;;2.58;;
35494;SDS011;21608;49.300;6.846;2022-08-04T01:10:05;2.57;;;1.93;;
35494;SDS011;21608;49.300;6.846;2022-08-04T01:16:26;2.83;;;1.67;;
35494;SDS011;21608;49.300;6.846;2022-08-04T01:26:37;4.63;;;1.83;;
35494;SDS011;21608;49.300;6.846;2022-08-04T01:29:54;2.30;;;2.05;;
35494;SDS011;21608;49.300;6.846;2022-08-04T01:33:02;2.55;;;2.05;;
35494;SDS011;21608;49.300;6.846;2022-08-04T01:36:06;1.60;;;1.50;;
35494;SDS011;21608;49.300;6.846;2022-08-04T01:39:14;3.83;;;2.10;;
35494;SDS011;21608;49.300;6.846;2022-08-04T01:42:36;1.92;;;1.83;;
35494;SDS011;21608;49.300;6.846;2022-08-04T01:45:41;3.53;;;1.92;;
35494;SDS011;21608;49.300;6.846;2022-08-04T01:48:51;2.13;;;1.98;;
35494;SDS011;21608;49.300;6.846;2022-08-04T01:51:54;2.58;;;2.38;;
35494;SDS011;21608;49.300;6.846;2022-08-04T01:54:57;2.10;;;2.00;;
35494;SDS011;21608;49.300;6.846;2022-08-04T01:58:01;2.33;;;2.10;;
35494;SDS011;21608;49.300;6.846;2022-08-04T02:01:09;2.22;;;2.03;;
35494;SDS011;21608;49.300;6.846;2022-08-04T02:04:17;1.95;;;1.85;;
35494;SDS011;21608;49.300;6.846;2022-08-04T02:07:39;4.72;;;1.73;;
35494;SDS011;21608;49.300;6.846;2022-08-04T02:11:19;6.47;;;2.20;;
35494;SDS011;21608;49.300;6.846;2022-08-04T02:14:29;2.95;;;2.08;;
35494;SDS011;21608;49.300;6.846;2022-08-04T02:17:56;2.00;;;1.80;;
35494;SDS011;21608;49.300;6.846;2022-08-04T02:21:00;1.95;;;1.85;;
35494;SDS011;21608;49.300;6.846;2022-08-04T02:24:07;1.92;;;1.75;;
35494;SDS011;21608;49.300;6.846;2022-08-04T02:27:14;2.38;;;2.20;;
35494;SDS011;21608;49.300;6.846;2022-08-04T02:30:19;2.22;;;2.03;;
35494;SDS011;21608;49.300;6.846;2022-08-04T02:33:29;3.72;;;1.80;;
35494;SDS011;21608;49.300;6.846;2022-08-04T02:36:39;2.60;;;2.27;;
35494;SDS011;21608;49.300;6.846;2022-08-04T02:39:43;2.08;;;1.88;;
35494;SDS011;21608;49.300;6.846;2022-08-04T02:42:49;2.80;;;1.80;;
35494;SDS011;21608;49.300;6.846;2022-08-04T02:45:54;2.40;;;1.70;;
35494;SDS011;21608;49.300;6.846;2022-08-04T02:48:57;1.88;;;1.77;;
35494;SDS011;21608;49.300;6.846;2022-08-04T02:52:03;1.80;;;1.70;;
35494;SDS011;21608;49.300;6.846;2022-08-04T02:55:10;2.25;;;2.05;;
35494;SDS011;21608;49.300;6.846;2022-08-04T02:58:15;2.47;;;1.95;;
35494;SDS011;21608;49.300;6.846;2022-08-04T03:01:20;1.70;;;1.60;;
35494;SDS011;21608;49.300;6.846;2022-08-04T03:48:34;2.38;;;2.03;;
35494;SDS011;21608;49.300;6.846;2022-08-04T04:13:34;2.78;;;2.20;;
35494;SDS011;21608;49.300;6.846;2022-08-04T04:27:51;2.00;;;1.90;;
35494;SDS011;21608;49.300;6.846;2022-08-04T04:45:23;3.55;;;2.55;;
35494;SDS011;21608;49.300;6.846;2022-08-04T04:51:57;4.03;;;2.30;;
35494;SDS011;21608;49.300;6.846;2022-08-04T04:58:29;7.00;;;2.30;;
35494;SDS011;21608;49.300;6.846;2022-08-04T05:01:50;6.70;;;2.75;;
35494;SDS011;21608;49.300;6.846;2022-08-04T05:15:46;3.80;;;2.72;;
35494;SDS011;21608;49.300;6.846;2022-08-04T05:18:58;2.45;;;1.98;;
35494;SDS011;21608;49.300;6.846;2022-08-04T05:28:35;3.10;;;2.67;;
35494;SDS011;21608;49.300;6.846;2022-08-04T05:31:39;3.17;;;2.50;;
35494;SDS011;21608;49.300;6.846;2022-08-04T05:34:48;4.00;;;2.50;;
35494;SDS011;21608;49.300;6.846;2022-08-04T05:37:54;4.65;;;2.55;;
35494;SDS011;21608;49.300;6.846;2022-08-04T05:41:02;2.65;;;2.45;;
35494;SDS011;21608;49.300;6.846;2022-08-04T05:44:06;4.43;;;2.05;;
35494;SDS011;21608;49.300;6.846;2022-08-04T05:47:10;2.90;;;2.70;;
35494;SDS011;21608;49.300;6.846;2022-08-04T05:50:13;3.97;;;2.28;;
35494;SDS011;21608;49.300;6.846;2022-08-04T05:53:15;2.72;;;2.40;;
35494;SDS011;21608;49.300;6.846;2022-08-04T05:56:18;7.18;;;2.90;;
35494;SDS011;21608;49.300;6.846;2022-08-04T05:59:20;4.43;;;2.60;;
35494;SDS011;21608;49.300;6.846;2022-08-04T06:02:25;6.60;;;3.05;;
35494;SDS011;21608;49.300;6.846;2022-08-04T06:05:29;4.97;;;2.40;;
35494;SDS011;21608;49.300;6.846;2022-08-04T06:08:32;6.57;;;3.15;;
35494;SDS011;21608;49.300;6.846;2022-08-04T06:11:34;2.60;;;2.38;;
35494;SDS011;21608;49.300;6.846;2022-08-04T06:14:56;5.47;;;2.70;;
35494;SDS011;21608;49.300;6.846;2022-08-04T06:18:03;8.07;;;3.05;;
35494;SDS011;21608;49.300;6.846;2022-08-04T06:21:27;5.22;;;3.20;;
35494;SDS011;21608;49.300;6.846;2022-08-04T06:24:32;4.53;;;2.83;;
35494;SDS011;21608;49.300;6.846;2022-08-04T06:27:37;10.77;;;2.70;;
35494;SDS011;21608;49.300;6.846;2022-08-04T06:30:40;9.05;;;2.97;;
35494;SDS011;21608;49.300;6.846;2022-08-04T06:33:48;5.88;;;2.58;;
35494;SDS011;21608;49.300;6.846;2022-08-04T06:36:55;10.23;;;3.00;;
35494;SDS011;21608;49.300;6.846;2022-08-04T06:40:00;4.63;;;3.10;;
35494;SDS011;21608;49.300;6.846;2022-08-04T06:43:25;7.57;;;2.83;;
35494;SDS011;21608;49.300;6.846;2022-08-04T06:46:30;3.25;;;2.80;;
35494;SDS011;21608;49.300;6.846;2022-08-04T06:49:33;2.50;;;2.30;;
35494;SDS011;21608;49.300;6.846;2022-08-04T06:52:57;3.03;;;2.72;;
35494;SDS011;21608;49.300;6.846;2022-08-04T06:55:58;4.85;;;2.85;;
35494;SDS011;21608;49.300;6.846;2022-08-04T06:59:02;2.60;;;2.40;;
35494;SDS011;21608;49.300;6.846;2022-08-04T07:02:05;3.08;;;2.63;;
35494;SDS011;21608;49.300;6.846;2022-08-04T07:05:13;3.53;;;3.22;;
35494;SDS011;21608;49.300;6.846;2022-08-04T07:08:16;3.92;;;3.03;;
35494;SDS011;21608;49.300;6.846;2022-08-04T07:11:19;3.70;;;2.88;;
35494;SDS011;21608;49.300;6.846;2022-08-04T07:14:21;3.75;;;2.80;;
35494;SDS011;21608;49.300;6.846;2022-08-04T07:17:24;3.40;;;2.45;;
35494;SDS011;21608;49.300;6.846;2022-08-04T07:20:29;2.42;;;2.22;;
35494;SDS011;21608;49.300;6.846;2022-08-04T07:23:36;2.97;;;2.00;;
35494;SDS011;21608;49.300;6.846;2022-08-04T07:26:38;2.65;;;2.45;;
35494;SDS011;21608;49.300;6.846;2022-08-04T07:29:40;2.85;;;2.65;;
35494;SDS011;21608;49.300;6.846;2022-08-04T07:32:42;3.90;;;2.67;;
35494;SDS011;21608;49.300;6.846;2022-08-04T07:35:47;3.83;;;2.55;;
35494;SDS011;21608;49.300;6.846;2022-08-04T07:39:11;6.70;;;2.67;;
35494;SDS011;21608;49.300;6.846;2022-08-04T07:42:29;2.78;;;2.58;;
35494;SDS011;21608;49.300;6.846;2022-08-04T07:45:31;2.55;;;2.40;;
35494;SDS011;21608;49.300;6.846;2022-08-04T07:48:33;3.03;;;2.80;;
35494;SDS011;21608;49.300;6.846;2022-08-04T07:51:35;3.90;;;2.28;;
35494;SDS011;21608;49.300;6.846;2022-08-04T07:54:38;2.42;;;2.22;;
35494;SDS011;21608;49.300;6.846;2022-08-04T07:57:40;3.33;;;2.58;;
35494;SDS011;21608;49.300;6.846;2022-08-04T08:00:43;2.33;;;2.13;;
35494;SDS011;21608;49.300;6.846;2022-08-04T08:03:47;2.28;;;2.08;;
35494;SDS011;21608;49.300;6.846;2022-08-04T08:06:50;2.22;;;2.13;;
35494;SDS011;21608;49.300;6.846;2022-08-04T08:09:52;2.90;;;2.67;;
35494;SDS011;21608;49.300;6.846;2022-08-04T08:12:54;8.02;;;2.55;;
35494;SDS011;21608;49.300;6.846;2022-08-04T08:15:56;3.47;;;2.38;;
35494;SDS011;21608;49.300;6.846;2022-08-04T08:19:00;4.57;;;2.88;;
35494;SDS011;21608;49.300;6.846;2022-08-04T08:22:02;3.55;;;2.50;;
35494;SDS011;21608;49.300;6.846;2022-08-04T08:25:05;2.75;;;2.47;;
35494;SDS011;21608;49.300;6.846;2022-08-04T08:28:07;2.30;;;2.20;;
35494;SDS011;21608;49.300;6.846;2022-08-04T08:31:10;3.67;;;2.42;;
35494;SDS011;21608;49.300;6.846;2022-08-04T08:34:11;2.38;;;2.28;;
35494;SDS011;21608;49.300;6.846;2022-08-04T08:40:47;2.45;;;2.25;;
35494;SDS011;21608;49.300;6.846;2022-08-04T08:50:19;2.28;;;2.08;;
35494;SDS011;21608;49.300;6.846;2022-08-04T08:54:07;4.25;;;2.83;;
35494;SDS011;21608;49.300;6.846;2022-08-04T09:08:11;2.60;;;2.40;;
35494;SDS011;21608;49.300;6.846;2022-08-04T09:11:57;2.85;;;2.00;;
35494;SDS011;21608;49.300;6.846;2022-08-04T09:18:06;2.60;;;2.03;;
35494;SDS011;21608;49.300;6.846;2022-08-04T09:21:17;2.47;;;2.17;;
35494;SDS011;21608;49.300;6.846;2022-08-04T09:27:45;2.40;;;2.20;;
35494;SDS011;21608;49.300;6.846;2022-08-04T09:31:08;5.22;;;2.20;;
35494;SDS011;21608;49.300;6.846;2022-08-04T09:34:26;4.13;;;2.00;;
35494;SDS011;21608;49.300;6.846;2022-08-04T09:44:51;3.67;;;2.30;;
35494;SDS011;21608;49.300;6.846;2022-08-04T09:48:08;3.75;;;2.33;;
35494;SDS011;21608;49.300;6.846;2022-08-04T09:51:32;5.93;;;2.65;;
35494;SDS011;21608;49.300;6.846;2022-08-04T09:58:10;3.90;;;2.38;;
35494;SDS011;21608;49.300;6.846;2022-08-04T10:01:25;3.80;;;2.15;;
35494;SDS011;21608;49.300;6.846;2022-08-04T10:04:30;4.07;;;1.90;;
35494;SDS011;21608;49.300;6.846;2022-08-04T10:11:30;3.45;;;2.42;;
35494;SDS011;21608;49.300;6.846;2022-08-04T10:15:11;2.60;;;2.40;;
35494;SDS011;21608;49.300;6.846;2022-08-04T10:21:39;2.58;;;2.17;;
35494;SDS011;21608;49.300;6.846;2022-08-04T10:25:29;2.50;;;2.30;;
35494;SDS011;21608;49.300;6.846;2022-08-04T10:29:06;2.25;;;2.03;;
35494;SDS011;21608;49.300;6.846;2022-08-04T10:36:03;2.03;;;1.90;;
35494;SDS011;21608;49.300;6.846;2022-08-04T10:39:18;3.35;;;2.15;;
35494;SDS011;21608;49.300;6.846;2022-08-04T10:43:01;2.42;;;2.17;;
35494;SDS011;21608;49.300;6.846;2022-08-04T10:46:25;2.60;;;2.30;;
35494;SDS011;21608;49.300;6.846;2022-08-04T10:53:00;3.88;;;2.13;;
35494;SDS011;21608;49.300;6.846;2022-08-04T10:56:12;2.08;;;1.98;;
35494;SDS011;21608;49.300;6.846;2022-08-04T10:59:42;2.83;;;2.20;;
35494;SDS011;21608;49.300;6.846;2022-08-04T11:06:09;3.60;;;2.17;;
35494;SDS011;21608;49.300;6.846;2022-08-04T11:09:12;2.85;;;2.03;;
35494;SDS011;21608;49.300;6.846;2022-08-04T11:12:20;2.58;;;2.22;;
35494;SDS011;21608;49.300;6.846;2022-08-04T11:23:07;3.17;;;2.45;;
35494;SDS011;21608;49.300;6.846;2022-08-04T11:26:34;3.60;;;2.10;;
35494;SDS011;21608;49.300;6.846;2022-08-04T11:30:04;2.33;;;2.13;;
35494;SDS011;21608;49.300;6.846;2022-08-04T11:33:26;3.35;;;2.10;;
35494;SDS011;21608;49.300;6.846;2022-08-04T11:39:42;2.50;;;1.95;;
35494;SDS011;21608;49.300;6.846;2022-08-04T11:42:51;4.82;;;1.90;;
35494;SDS011;21608;49.300;6.846;2022-08-04T11:45:58;2.30;;;2.10;;
35494;SDS011;21608;49.300;6.846;2022-08-04T11:49:07;4.38;;;1.95;;
35494;SDS011;21608;49.300;6.846;2022-08-04T11:52:15;3.67;;;2.20;;
35494;SDS011;21608;49.300;6.846;2022-08-04T11:55:20;2.45;;;2.25;;
35494;SDS011;21608;49.300;6.846;2022-08-04T11:58:25;3.47;;;2.25;;
35494;SDS011;21608;49.300;6.846;2022-08-04T12:01:43;1.98;;;1.80;;
35494;SDS011;21608;49.300;6.846;2022-08-04T12:15:36;2.25;;;2.00;;
35494;SDS011;21608;49.300;6.846;2022-08-04T12:18:51;2.28;;;1.98;;
35494;SDS011;21608;49.300;6.846;2022-08-04T12:22:00;3.25;;;2.17;;
35494;SDS011;21608;49.300;6.846;2022-08-04T12:25:08;2.42;;;1.90;;
35494;SDS011;21608;49.300;6.846;2022-08-04T12:28:32;5.25;;;1.80;;
35494;SDS011;21608;49.300;6.846;2022-08-04T12:32:00;1.92;;;1.63;;
35494;SDS011;21608;49.300;6.846;2022-08-04T12:35:18;3.78;;;2.08;;
35494;SDS011;21608;49.300;6.846;2022-08-04T12:38:23;2.78;;;1.90;;
35494;SDS011;21608;49.300;6.846;2022-08-04T12:41:31;2.03;;;1.92;;
35494;SDS011;21608;49.300;6.846;2022-08-04T12:44:39;2.22;;;1.90;;
35494;SDS011;21608;49.300;6.846;2022-08-04T12:47:42;2.97;;;1.70;;
35494;SDS011;21608;49.300;6.846;2022-08-04T12:50:51;2.10;;;1.90;;
35494;SDS011;21608;49.300;6.846;2022-08-04T12:53:54;3.15;;;1.63;;
35494;SDS011;21608;49.300;6.846;2022-08-04T12:56:56;3.88;;;2.03;;
35494;SDS011;21608;49.300;6.846;2022-08-04T12:59:59;3.55;;;2.15;;
35494;SDS011;21608;49.300;6.846;2022-08-04T13:03:03;2.55;;;1.80;;
35494;SDS011;21608;49.300;6.846;2022-08-04T13:06:11;2.20;;;2.03;;
35494;SDS011;21608;49.300;6.846;2022-08-04T13:09:22;2.97;;;1.90;;
35494;SDS011;21608;49.300;6.846;2022-08-04T13:12:26;2.28;;;1.80;;
35494;SDS011;21608;49.300;6.846;2022-08-04T13:15:33;2.10;;;1.90;;
35494;SDS011;21608;49.300;6.846;2022-08-04T13:18:48;1.85;;;1.75;;
35494;SDS011;21608;49.300;6.846;2022-08-04T13:21:50;1.98;;;1.50;;
35494;SDS011;21608;49.300;6.846;2022-08-04T13:25:13;1.77;;;1.67;;
35494;SDS011;21608;49.300;6.846;2022-08-04T13:28:38;1.98;;;1.88;;
35494;SDS011;21608;49.300;6.846;2022-08-04T13:31:43;1.70;;;1.60;;
35494;SDS011;21608;49.300;6.846;2022-08-04T13:34:53;2.35;;;1.85;;
35494;SDS011;21608;49.300;6.846;2022-08-04T13:37:57;3.80;;;1.73;;
35494;SDS011;21608;49.300;6.846;2022-08-04T13:41:03;1.90;;;1.80;;
35494;SDS011;21608;49.300;6.846;2022-08-04T13:44:07;3.28;;;1.70;;
35494;SDS011;21608;49.300;6.846;2022-08-04T13:47:21;3.60;;;1.77;;
35494;SDS011;21608;49.300;6.846;2022-08-04T13:50:27;2.13;;;1.70;;
35494;SDS011;21608;49.300;6.846;2022-08-04T13:53:31;2.22;;;1.73;;
35494;SDS011;21608;49.300;6.846;2022-08-04T13:56:57;2.03;;;1.60;;
35494;SDS011;21608;49.300;6.846;2022-08-04T14:00:00;2.80;;;1.65;;
35494;SDS011;21608;49.300;6.846;2022-08-04T14:03:08;3.08;;;1.67;;
35494;SDS011;21608;49.300;6.846;2022-08-04T14:06:25;1.60;;;1.50;;
35494;SDS011;21608;49.300;6.846;2022-08-04T14:09:32;2.03;;;1.52;;
35494;SDS011;21608;49.300;6.846;2022-08-04T14:12:48;2.42;;;1.60;;
35494;SDS011;21608;49.300;6.846;2022-08-04T14:15:51;2.00;;;1.70;;
35494;SDS011;21608;49.300;6.846;2022-08-04T14:19:04;2.10;;;1.90;;
35494;SDS011;21608;49.300;6.846;2022-08-04T14:22:08;1.90;;;1.75;;
35494;SDS011;21608;49.300;6.846;2022-08-04T14:25:16;2.88;;;1.75;;
35494;SDS011;21608;49.300;6.846;2022-08-04T14:28:30;1.65;;;1.55;;
35494;SDS011;21608;49.300;6.846;2022-08-04T14:31:52;1.85;;;1.70;;
35494;SDS011;21608;49.300;6.846;2022-08-04T14:35:09;2.00;;;1.80;;
35494;SDS011;21608;49.300;6.846;2022-08-04T14:38:12;3.25;;;1.67;;
35494;SDS011;21608;49.300;6.846;2022-08-04T14:41:14;2.53;;;1.70;;
35494;SDS011;21608;49.300;6.846;2022-08-04T14:44:18;1.80;;;1.70;;
35494;SDS011;21608;49.300;6.846;2022-08-04T14:50:53;2.90;;;1.73;;
35494;SDS011;21608;49.300;6.846;2022-08-04T14:53:55;1.70;;;1.58;;
35494;SDS011;21608;49.300;6.846;2022-08-04T14:56:59;2.97;;;1.45;;
35494;SDS011;21608;49.300;6.846;2022-08-04T15:00:03;1.73;;;1.23;;
35494;SDS011;21608;49.300;6.846;2022-08-04T15:03:11;1.60;;;1.50;;
35494;SDS011;21608;49.300;6.846;2022-08-04T15:06:14;1.73;;;1.33;;
35494;SDS011;21608;49.300;6.846;2022-08-04T15:09:22;1.35;;;1.25;;
35494;SDS011;21608;49.300;6.846;2022-08-04T15:12:24;2.75;;;1.30;;
35494;SDS011;21608;49.300;6.846;2022-08-04T15:15:27;1.65;;;1.50;;
35494;SDS011;21608;49.300;6.846;2022-08-04T15:18:37;2.92;;;1.90;;
35494;SDS011;21608;49.300;6.846;2022-08-04T15:21:41;2.42;;;1.58;;
35494;SDS011;21608;49.300;6.846;2022-08-04T15:24:42;4.05;;;1.40;;
35494;SDS011;21608;49.300;6.846;2022-08-04T15:27:52;2.17;;;1.70;;
35494;SDS011;21608;49.300;6.846;2022-08-04T15:30:55;5.60;;;1.60;;
35494;SDS011;21608;49.300;6.846;2022-08-04T15:33:57;2.25;;;1.30;;
35494;SDS011;21608;49.300;6.846;2022-08-04T15:36:59;3.60;;;1.52;;
35494;SDS011;21608;49.300;6.846;2022-08-04T15:40:08;2.08;;;1.67;;
35494;SDS011;21608;49.300;6.846;2022-08-04T15:50:10;1.60;;;1.50;;
35494;SDS011;21608;49.300;6.846;2022-08-04T15:57:02;1.67;;;1.50;;
35494;SDS011;21608;49.300;6.846;2022-08-04T16:00:06;1.23;;;1.13;;
35494;SDS011;21608;49.300;6.846;2022-08-04T16:07:03;2.55;;;1.50;;
35494;SDS011;21608;49.300;6.846;2022-08-04T16:10:40;1.48;;;1.38;;
35494;SDS011;21608;49.300;6.846;2022-08-04T16:14:06;1.73;;;1.60;;
35494;SDS011;21608;49.300;6.846;2022-08-04T16:17:13;4.20;;;2.42;;
35494;SDS011;21608;49.300;6.846;2022-08-04T16:20:16;6.65;;;2.58;;
35494;SDS011;21608;49.300;6.846;2022-08-04T16:26:54;8.85;;;2.60;;
35494;SDS011;21608;49.300;6.846;2022-08-04T16:30:04;10.95;;;2.75;;
35494;SDS011;21608;49.300;6.846;2022-08-04T16:33:14;13.30;;;2.63;;
35494;SDS011;21608;49.300;6.846;2022-08-04T16:36:21;6.88;;;2.83;;
35494;SDS011;21608;49.300;6.846;2022-08-04T16:43:39;7.35;;;2.58;;
35494;SDS011;21608;49.300;6.846;2022-08-04T16:46:41;4.07;;;2.38;;
35494;SDS011;21608;49.300;6.846;2022-08-04T16:50:03;3.30;;;2.45;;
35494;SDS011;21608;49.300;6.846;2022-08-04T16:53:08;8.63;;;2.70;;
35494;SDS011;21608;49.300;6.846;2022-08-04T16:56:32;4.80;;;2.13;;
35494;SDS011;21608;49.300;6.846;2022-08-04T16:59:36;4.32;;;2.70;;
35494;SDS011;21608;49.300;6.846;2022-08-04T17:02:38;4.15;;;2.17;;
35494;SDS011;21608;49.300;6.846;2022-08-04T17:05:40;5.25;;;2.63;;
35494;SDS011;21608;49.300;6.846;2022-08-04T17:08:43;5.63;;;2.50;;
35494;SDS011;21608;49.300;6.846;2022-08-04T17:11:46;4.63;;;2.90;;
35494;SDS011;21608;49.300;6.846;2022-08-04T17:14:48;4.72;;;2.42;;
35494;SDS011;21608;49.300;6.846;2022-08-04T17:18:13;3.22;;;2.22;;
35494;SDS011;21608;49.300;6.846;2022-08-04T17:21:23;6.32;;;2.22;;
35494;SDS011;21608;49.300;6.846;2022-08-04T17:24:27;5.65;;;2.72;;
35494;SDS011;21608;49.300;6.846;2022-08-04T17:27:28;6.20;;;2.50;;
35494;SDS011;21608;49.300;6.846;2022-08-04T17:30:50;4.90;;;2.67;;
35494;SDS011;21608;49.300;6.846;2022-08-04T17:33:56;4.60;;;2.67;;
35494;SDS011;21608;49.300;6.846;2022-08-04T17:37:03;4.68;;;2.47;;
35494;SDS011;21608;49.300;6.846;2022-08-04T17:40:25;5.25;;;2.40;;
35494;SDS011;21608;49.300;6.846;2022-08-04T17:43:37;7.85;;;2.70;;
35494;SDS011;21608;49.300;6.846;2022-08-04T17:47:07;4.93;;;2.33;;
35494;SDS011;21608;49.300;6.846;2022-08-04T17:50:29;5.88;;;2.45;;
35494;SDS011;21608;49.300;6.846;2022-08-04T17:53:36;6.32;;;2.65;;
35494;SDS011;21608;49.300;6.846;2022-08-04T18:00:21;5.43;;;2.40;;
35494;SDS011;21608;49.300;6.846;2022-08-04T18:03:33;4.50;;;2.60;;
35494;SDS011;21608;49.300;6.846;2022-08-04T18:06:36;4.85;;;2.08;;
35494;SDS011;21608;49.300;6.846;2022-08-04T18:09:41;2.08;;;1.85;;
35494;SDS011;21608;49.300;6.846;2022-08-04T18:13:12;3.55;;;2.35;;
35494;SDS011;21608;49.300;6.846;2022-08-04T18:16:14;3.70;;;2.30;;
35494;SDS011;21608;49.300;6.846;2022-08-04T18:19:23;2.80;;;2.05;;
35494;SDS011;21608;49.300;6.846;2022-08-04T18:22:25;2.30;;;2.05;;
35494;SDS011;21608;49.300;6.846;2022-08-04T18:25:29;3.42;;;2.00;;
35494;SDS011;21608;49.300;6.846;2022-08-04T18:28:50;3.35;;;2.30;;
35494;SDS011;21608;49.300;6.846;2022-08-04T18:31:52;3.85;;;2.60;;
35494;SDS011;21608;49.300;6.846;2022-08-04T18:34:54;5.22;;;1.90;;
35494;SDS011;21608;49.300;6.846;2022-08-04T18:38:06;3.17;;;2.28;;
35494;SDS011;21608;49.300;6.846;2022-08-04T18:41:24;5.22;;;2.53;;
35494;SDS011;21608;49.300;6.846;2022-08-04T18:44:49;4.85;;;2.15;;
35494;SDS011;21608;49.300;6.846;2022-08-04T18:47:53;3.33;;;2.22;;
35494;SDS011;21608;49.300;6.846;2022-08-04T18:50:59;2.60;;;1.98;;
35494;SDS011;21608;49.300;6.846;2022-08-04T18:54:19;4.82;;;1.90;;
35494;SDS011;21608;49.300;6.846;2022-08-04T18:57:42;6.03;;;2.05;;
35494;SDS011;21608;49.300;6.846;2022-08-04T19:01:02;2.72;;;2.22;;
35494;SDS011;21608;49.300;6.846;2022-08-04T19:04:13;3.20;;;2.17;;
35494;SDS011;21608;49.300;6.846;2022-08-04T19:07:34;4.47;;;2.15;;
35494;SDS011;21608;49.300;6.846;2022-08-04T19:10:56;3.80;;;2.40;;
35494;SDS011;21608;49.300;6.846;2022-08-04T19:14:01;2.90;;;1.95;;
35494;SDS011;21608;49.300;6.846;2022-08-04T19:17:04;6.35;;;2.08;;
35494;SDS011;21608;49.300;6.846;2022-08-04T19:20:12;3.28;;;2.00;;
35494;SDS011;21608;49.300;6.846;2022-08-04T19:23:26;2.33;;;2.08;;
35494;SDS011;21608;49.300;6.846;2022-08-04T19:26:48;3.85;;;2.30;;
35494;SDS011;21608;49.300;6.846;2022-08-04T19:29:50;4.93;;;2.25;;
35494;SDS011;21608;49.300;6.846;2022-08-04T19:32:54;2.80;;;1.90;;
35494;SDS011;21608;49.300;6.846;2022-08-04T19:35:56;3.65;;;2.20;;
35494;SDS011;21608;49.300;6.846;2022-08-04T19:39:01;4.63;;;2.08;;
35494;SDS011;21608;49.300;6.846;2022-08-04T19:42:12;3.75;;;2.10;;
35494;SDS011;21608;49.300;6.846;2022-08-04T19:45:13;4.75;;;1.98;;
35494;SDS011;21608;49.300;6.846;2022-08-04T19:48:16;4.35;;;2.00;;
35494;SDS011;21608;49.300;6.846;2022-08-04T19:51:20;2.83;;;1.92;;
35494;SDS011;21608;49.300;6.846;2022-08-04T19:54:22;3.42;;;1.70;;
35494;SDS011;21608;49.300;6.846;2022-08-04T19:57:27;3.08;;;1.90;;
35494;SDS011;21608;49.300;6.846;2022-08-04T20:00:36;2.80;;;1.45;;
35494;SDS011;21608;49.300;6.846;2022-08-04T20:03:39;6.03;;;2.28;;
35494;SDS011;21608;49.300;6.846;2022-08-04T20:07:01;2.75;;;1.92;;
35494;SDS011;21608;49.300;6.846;2022-08-04T20:10:03;3.53;;;1.90;;
35494;SDS011;21608;49.300;6.846;2022-08-04T20:13:05;2.60;;;1.73;;
35494;SDS011;21608;49.300;6.846;2022-08-04T20:16:10;2.65;;;1.63;;
35494;SDS011;21608;49.300;6.846;2022-08-04T20:19:31;4.95;;;2.00;;
35494;SDS011;21608;49.300;6.846;2022-08-04T20:22:35;1.70;;;1.52;;
35494;SDS011;21608;49.300;6.846;2022-08-04T20:25:53;3.28;;;2.00;;
35494;SDS011;21608;49.300;6.846;2022-08-04T20:28:56;4.38;;;1.80;;
35494;SDS011;21608;49.300;6.846;2022-08-04T20:31:58;2.50;;;1.92;;
35494;SDS011;21608;49.300;6.846;2022-08-04T20:35:09;3.65;;;2.03;;
35494;SDS011;21608;49.300;6.846;2022-08-04T20:38:16;4.10;;;2.15;;
35494;SDS011;21608;49.300;6.846;2022-08-04T20:41:34;2.88;;;1.83;;
35494;SDS011;21608;49.300;6.846;2022-08-04T20:44:37;2.95;;;1.77;;
35494;SDS011;21608;49.300;6.846;2022-08-04T20:47:46;4.07;;;1.80;;
35494;SDS011;21608;49.300;6.846;2022-08-04T20:50:54;3.10;;;1.60;;
35494;SDS011;21608;49.300;6.846;2022-08-04T20:53:57;2.00;;;1.80;;
35494;SDS011;21608;49.300;6.846;2022-08-04T20:56:59;3.03;;;1.83;;
35494;SDS011;21608;49.300;6.846;2022-08-04T21:00:02;4.25;;;1.92;;
35494;SDS011;21608;49.300;6.846;2022-08-04T21:03:05;3.20;;;1.60;;
35494;SDS011;21608;49.300;6.846;2022-08-04T21:06:07;2.00;;;1.50;;
35494;SDS011;21608;49.300;6.846;2022-08-04T21:09:10;4.43;;;1.70;;
35494;SDS011;21608;49.300;6.846;2022-08-04T21:12:27;1.55;;;1.45;;
35494;SDS011;21608;49.300;6.846;2022-08-04T21:15:29;4.35;;;1.98;;
35494;SDS011;21608;49.300;6.846;2022-08-04T21:18:51;6.70;;;1.60;;
35494;SDS011;21608;49.300;6.846;2022-08-04T21:21:53;2.50;;;1.75;;
35494;SDS011;21608;49.300;6.846;2022-08-04T21:24:55;4.82;;;2.03;;
35494;SDS011;21608;49.300;6.846;2022-08-04T21:27:57;1.63;;;1.50;;
35494;SDS011;21608;49.300;6.846;2022-08-04T21:31:04;2.08;;;1.63;;
35494;SDS011;21608;49.300;6.846;2022-08-04T21:34:22;2.05;;;1.30;;
35494;SDS011;21608;49.300;6.846;2022-08-04T21:37:42;2.30;;;1.70;;
35494;SDS011;21608;49.300;6.846;2022-08-04T21:41:01;3.15;;;1.63;;
35494;SDS011;21608;49.300;6.846;2022-08-04T21:44:03;5.25;;;1.88;;
35494;SDS011;21608;49.300;6.846;2022-08-04T21:47:05;4.10;;;1.90;;
35494;SDS011;21608;49.300;6.846;2022-08-04T21:50:17;3.00;;;1.50;;
35494;SDS011;21608;49.300;6.846;2022-08-04T21:53:39;2.67;;;1.30;;
35494;SDS011;21608;49.300;6.846;2022-08-04T21:56:41;1.65;;;1.50;;
35494;SDS011;21608;49.300;6.846;2022-08-04T21:59:52;1.85;;;1.40;;
35494;SDS011;21608;49.300;6.846;2022-08-04T22:02:54;3.97;;;1.98;;
35494;SDS011;21608;49.300;6.846;2022-08-04T22:05:55;2.30;;;1.70;;
35494;SDS011;21608;49.300;6.846;2022-08-04T22:08:57;1.92;;;1.83;;
35494;SDS011;21608;49.300;6.846;2022-08-04T22:11:59;1.85;;;1.63;;
35494;SDS011;21608;49.300;6.846;2022-08-04T22:15:03;6.28;;;1.73;;
35494;SDS011;21608;49.300;6.846;2022-08-04T22:18:27;4.10;;;1.88;;
35494;SDS011;21608;49.300;6.846;2022-08-04T22:21:29;3.47;;;1.70;;
35494;SDS011;21608;49.300;6.846;2022-08-04T22:24:39;2.90;;;1.75;;
35494;SDS011;21608;49.300;6.846;2022-08-04T22:27:41;3.20;;;1.65;;
35494;SDS011;21608;49.300;6.846;2022-08-04T22:31:03;4.43;;;1.60;;
35494;SDS011;21608;49.300;6.846;2022-08-04T22:34:25;4.97;;;1.90;;
35494;SDS011;21608;49.300;6.846;2022-08-04T22:37:30;4.47;;;1.80;;
35494;SDS011;21608;49.300;6.846;2022-08-04T22:40:43;4.78;;;1.80;;
35494;SDS011;21608;49.300;6.846;2022-08-04T22:43:48;3.30;;;1.73;;
35494;SDS011;21608;49.300;6.846;2022-08-04T22:46:55;5.47;;;1.80;;
35494;SDS011;21608;49.300;6.846;2022-08-04T22:49:59;5.65;;;2.00;;
35494;SDS011;21608;49.300;6.846;2022-08-04T22:53:21;3.08;;;1.58;;
35494;SDS011;21608;49.300;6.846;2022-08-04T22:56:23;3.22;;;2.25;;
35494;SDS011;21608;49.300;6.846;2022-08-04T22:59:39;3.63;;;1.77;;
35494;SDS011;21608;49.300;6.846;2022-08-04T23:02:43;5.25;;;2.00;;
35494;SDS011;21608;49.300;6.846;2022-08-04T23:05:48;2.13;;;1.73;;
35494;SDS011;21608;49.300;6.846;2022-08-04T23:08:50;7.82;;;2.70;;
35494;SDS011;21608;49.300;6.846;2022-08-04T23:11:52;3.88;;;2.10;;